Time;durP1;ratioP1;P1;durP2;ratioP2;P2;SDS_P1;SDS_P2;PMS_P1;PMS_P2;Temp;Humidity;BMP_temperature;BMP_pressure;BME280_temperature;BME280_humidity;BME280_pressure;Samples;Min_cycle;Max_cycle;Signal;HPM_P1;HPM_P2
2023/07/09 00:00:47;;;;;;;5.50;4.87;;;;;;;23.05;45.23;99125.22;5119866;27;40739;-78
2023/07/09 00:03:14;;;;;;;4.87;4.27;;;;;;;22.98;45.42;99124.22;5137527;27;43660;-78
2023/07/09 00:05:42;;;;;;;5.40;4.17;;;;;;;22.91;45.85;99126.75;5136648;27;41446;-77
2023/07/09 00:08:26;;;;;;;4.80;4.33;;;;;;;22.73;45.77;99103.59;5137288;27;40751;-78
2023/07/09 00:10:54;;;;;;;6.73;4.47;;;;;;;22.78;45.65;99128.25;5119638;27;42051;-78
2023/07/09 00:13:22;;;;;;;6.23;4.20;;;;;;;22.51;45.81;99094.25;5137414;27;43639;-78
2023/07/09 00:15:51;;;;;;;4.20;3.80;;;;;;;22.63;45.71;99119.06;5120070;27;42235;-78
2023/07/09 00:18:19;;;;;;;4.53;4.03;;;;;;;22.60;45.74;99136.47;5136990;27;39866;-78
2023/07/09 00:20:48;;;;;;;5.30;4.50;;;;;;;22.55;45.87;99128.00;5136589;27;40507;-78
2023/07/09 00:23:19;;;;;;;4.77;4.27;;;;;;;22.51;45.81;99132.88;5136880;27;41783;-78
2023/07/09 00:25:48;;;;;;;4.87;4.33;;;;;;;22.34;46.04;99124.91;5136874;27;40910;-78
2023/07/09 00:28:17;;;;;;;4.60;4.20;;;;;;;22.14;46.09;99091.94;5119915;27;40301;-78
2023/07/09 00:30:45;;;;;;;5.20;4.33;;;;;;;22.40;46.01;99143.13;5136742;27;42175;-78
2023/07/09 00:33:15;;;;;;;4.53;4.00;;;;;;;22.38;46.33;99143.28;5119461;27;43041;-78
2023/07/09 00:35:46;;;;;;;7.13;5.07;;;;;;;22.38;47.00;99143.28;5154941;27;43515;-78
2023/07/09 00:38:15;;;;;;;5.80;4.47;;;;;;;22.37;46.91;99130.00;5133838;27;40857;-77
2023/07/09 00:40:48;;;;;;;5.63;4.37;;;;;;;22.37;47.13;99130.00;5119299;27;42231;-78
2023/07/09 00:43:17;;;;;;;4.47;3.97;;;;;;;22.36;46.80;99139.94;5119323;27;43636;-78
2023/07/09 00:45:45;;;;;;;5.93;3.87;;;;;;;22.35;46.96;99134.72;5119076;27;42273;-78
2023/07/09 00:48:17;;;;;;;4.47;4.03;;;;;;;22.31;46.94;99134.19;5155312;27;41037;-78
2023/07/09 00:50:51;;;;;;;4.67;4.20;;;;;;;22.27;47.35;99140.91;5134997;27;43223;-79
2023/07/09 00:53:22;;;;;;;6.63;3.83;;;;;;;22.24;47.62;99135.00;5119243;27;41894;-78
2023/07/09 00:55:56;;;;;;;5.00;4.33;;;;;;;22.18;47.74;99141.88;5136509;27;42136;-77
2023/07/09 00:58:27;;;;;;;7.60;4.00;;;;;;;22.15;47.49;99136.81;5119128;27;39985;-78
2023/07/09 01:01:01;;;;;;;6.10;4.13;;;;;;;22.11;47.33;99135.47;5135080;27;41839;-78
2023/07/09 01:03:35;;;;;;;4.90;4.10;;;;;;;22.07;47.68;99134.09;5133129;27;44063;-78
2023/07/09 01:06:05;;;;;;;3.93;3.53;;;;;;;22.02;48.35;99137.25;5118612;27;41313;-78
2023/07/09 01:08:36;;;;;;;4.73;4.27;;;;;;;21.95;48.53;99141.59;5136381;27;41799;-78
2023/07/09 01:11:08;;;;;;;5.40;4.00;;;;;;;21.90;48.64;99143.91;5118957;27;42352;-77
2023/07/09 01:13:39;;;;;;;4.37;3.97;;;;;;;21.83;48.66;99149.13;5136023;27;41436;-77
2023/07/09 01:16:07;;;;;;;5.77;4.20;;;;;;;21.77;48.69;99155.13;5118708;27;41691;-77
2023/07/09 01:18:39;;;;;;;4.40;4.00;;;;;;;21.72;48.55;99145.84;5136336;27;41034;-78
2023/07/09 01:21:15;;;;;;;6.37;4.60;;;;;;;21.69;48.62;99148.84;5135127;27;41958;-78
2023/07/09 01:23:44;;;;;;;4.87;4.37;;;;;;;21.64;48.40;99148.47;5119036;27;41820;-78
2023/07/09 01:26:15;;;;;;;5.43;4.23;;;;;;;21.53;48.35;99141.50;5135639;27;41245;-77
2023/07/09 01:28:43;;;;;;;6.10;4.13;;;;;;;21.50;48.49;99142.69;5118889;27;39853;-78
2023/07/09 01:31:13;;;;;;;4.30;3.90;;;;;;;21.52;48.56;99147.88;5135480;27;41765;-77
2023/07/09 01:33:41;;;;;;;4.57;4.13;;;;;;;21.49;48.36;99150.94;5118400;27;43070;-78
2023/07/09 01:36:13;;;;;;;6.20;4.20;;;;;;;21.43;48.75;99156.94;5117814;27;42940;-77
2023/07/09 01:38:41;;;;;;;4.80;4.10;;;;;;;21.39;48.52;99152.84;5151187;27;41917;-77
2023/07/09 01:41:13;;;;;;;4.70;3.67;;;;;;;21.36;48.72;99162.13;5154082;27;42657;-77
2023/07/09 01:43:42;;;;;;;3.97;3.57;;;;;;;21.32;48.86;99149.09;5132550;27;43831;-77
2023/07/09 01:46:12;;;;;;;4.87;4.27;;;;;;;21.21;48.71;99130.50;5135300;27;42407;-77
2023/07/09 01:48:42;;;;;;;5.27;3.80;;;;;;;21.26;48.99;99147.06;5135332;27;40780;-77
2023/07/09 01:51:16;;;;;;;4.73;4.23;;;;;;;21.22;48.72;99143.81;5153188;27;42817;-77
2023/07/09 01:53:45;;;;;;;5.47;4.20;;;;;;;21.20;48.89;99156.59;5118574;27;42761;-77
2023/07/09 01:56:12;;;;;;;4.60;4.10;;;;;;;21.17;48.80;99157.72;5135383;27;42344;-77
2023/07/09 01:58:41;;;;;;;3.67;3.30;;;;;;;21.13;48.78;99150.97;5135483;27;40958;-77
2023/07/09 02:01:12;;;;;;;5.27;3.80;;;;;;;21.11;49.11;99152.97;5117753;27;40483;-77
2023/07/09 02:03:39;;;;;;;4.27;3.87;;;;;;;21.06;49.25;99152.56;5118195;27;42772;-77
2023/07/09 02:06:09;;;;;;;4.63;3.90;;;;;;;20.99;49.48;99154.19;5153911;27;43502;-77
2023/07/09 02:08:39;;;;;;;4.93;4.37;;;;;;;20.92;50.03;99147.72;5153773;27;40901;-77
2023/07/09 02:11:07;;;;;;;4.73;4.23;;;;;;;20.92;50.17;99153.09;5134956;27;42729;-78
2023/07/09 02:13:34;;;;;;;4.40;4.00;;;;;;;20.86;50.15;99158.28;5117476;27;44875;-77
2023/07/09 02:16:02;;;;;;;6.63;3.87;;;;;;;20.84;50.20;99160.28;5134998;27;42156;-77
2023/07/09 02:18:30;;;;;;;5.63;4.77;;;;;;;20.78;50.20;99161.72;5117248;27;40903;-77
2023/07/09 02:21:02;;;;;;;5.30;4.50;;;;;;;20.72;50.24;99159.66;5133821;27;43297;-77
2023/07/09 02:23:30;;;;;;;6.37;4.03;;;;;;;20.67;50.71;99160.09;5135086;27;43658;-77
2023/07/09 02:26:00;;;;;;;5.13;4.27;;;;;;;20.63;50.62;99153.34;5117353;27;41273;-77
2023/07/09 02:28:28;;;;;;;5.60;4.20;;;;;;;20.60;50.80;99158.19;5153391;27;41942;-77
2023/07/09 02:30:55;;;;;;;4.70;4.30;;;;;;;20.56;50.69;99168.38;5134840;27;42700;-77
2023/07/09 02:33:23;;;;;;;4.27;3.60;;;;;;;20.54;50.79;99173.06;5117686;27;41709;-77
2023/07/09 02:35:51;;;;;;;4.03;3.63;;;;;;;20.52;50.99;99176.94;5117165;27;41184;-78
2023/07/09 02:38:19;;;;;;;5.43;4.20;;;;;;;20.51;51.19;99180.63;5135061;27;40902;-77
2023/07/09 02:40:48;;;;;;;5.33;4.23;;;;;;;20.50;51.43;99173.53;5117107;27;42054;-78
2023/07/09 02:43:18;;;;;;;6.27;4.53;;;;;;;20.42;51.51;99167.06;5117639;27;41943;-77
2023/07/09 02:45:46;;;;;;;5.97;4.60;;;;;;;20.48;51.96;99179.06;5117363;27;42628;-77
2023/07/09 02:48:13;;;;;;;4.50;4.10;;;;;;;20.50;52.40;99184.31;5134891;27;41116;-77
2023/07/09 02:50:41;;;;;;;5.63;3.93;;;;;;;20.50;52.33;99185.16;5117034;27;40488;-77
2023/07/09 02:53:09;;;;;;;5.27;3.93;;;;;;;20.50;51.78;99187.00;5153091;27;43703;-78
2023/07/09 02:55:37;;;;;;;5.00;3.93;;;;;;;20.49;51.91;99182.59;5116972;27;41266;-78
2023/07/09 02:58:05;;;;;;;4.83;4.20;;;;;;;20.48;52.38;99180.91;5134362;27;41338;-78
2023/07/09 03:00:34;;;;;;;5.23;4.30;;;;;;;20.44;52.54;99183.06;5116714;27;41774;-77
2023/07/09 03:03:02;;;;;;;5.27;4.20;;;;;;;20.41;52.29;99186.03;5134255;27;43449;-78
2023/07/09 03:05:30;;;;;;;3.97;3.57;;;;;;;20.36;52.59;99193.72;5117122;27;41654;-77
2023/07/09 03:07:57;;;;;;;4.30;3.90;;;;;;;20.32;52.48;99186.91;5153016;27;40984;-78
2023/07/09 03:10:25;;;;;;;4.00;3.60;;;;;;;20.26;52.87;99193.75;5116757;27;40866;-77
2023/07/09 03:12:53;;;;;;;5.43;4.40;;;;;;;20.21;52.93;99185.25;5134399;27;42742;-77
2023/07/09 03:15:20;;;;;;;4.23;3.83;;;;;;;20.16;53.07;99186.69;5134014;27;42632;-78
2023/07/09 03:17:49;;;;;;;6.87;4.60;;;;;;;20.14;53.16;99194.09;5116667;27;40987;-78
2023/07/09 03:20:17;;;;;;;4.83;3.90;;;;;;;20.06;53.21;99184.91;5133884;27;42738;-77
2023/07/09 03:22:45;;;;;;;4.47;4.07;;;;;;;20.08;53.34;99190.13;5134009;27;42416;-77
2023/07/09 03:25:12;;;;;;;4.40;3.77;;;;;;;20.05;53.01;99201.19;5133757;27;41334;-77
2023/07/09 03:27:40;;;;;;;5.67;4.97;;;;;;;20.03;53.06;99192.41;5116881;27;39694;-78
2023/07/09 03:30:08;;;;;;;5.53;4.30;;;;;;;20.00;53.35;99192.72;5133648;27;42823;-78
2023/07/09 03:32:36;;;;;;;4.30;3.80;;;;;;;19.84;53.53;99173.66;5133795;27;41496;-77
2023/07/09 03:35:06;;;;;;;4.53;4.13;;;;;;;19.95;53.49;99195.84;5115874;27;42654;-77
2023/07/09 03:37:34;;;;;;;5.57;4.30;;;;;;;19.93;53.47;99196.97;5131305;27;42325;-77
2023/07/09 03:40:03;;;;;;;4.93;4.20;;;;;;;19.81;53.68;99179.34;5116705;27;41708;-77
2023/07/09 03:42:31;;;;;;;5.27;4.53;;;;;;;19.80;53.59;99186.53;5116557;27;43298;-77
2023/07/09 03:44:59;;;;;;;4.70;4.13;;;;;;;19.89;53.82;99206.34;5133292;27;41970;-77
2023/07/09 03:47:27;;;;;;;5.57;4.10;;;;;;;19.90;54.38;99208.03;5116433;27;40892;-77
2023/07/09 03:49:54;;;;;;;5.17;4.20;;;;;;;19.77;54.96;99196.75;5133531;27;41053;-77
2023/07/09 03:52:24;;;;;;;4.73;4.27;;;;;;;19.48;54.54;99154.66;5152164;27;42888;-77
2023/07/09 03:54:51;;;;;;;5.70;5.03;;;;;;;19.85;54.18;99210.31;5151894;27;42662;-77
2023/07/09 03:57:19;;;;;;;5.17;3.80;;;;;;;19.88;54.44;99212.72;5133687;27;42108;-77
2023/07/09 03:59:47;;;;;;;5.17;4.00;;;;;;;19.88;54.00;99210.03;5133486;27;41928;-76
2023/07/09 04:02:14;;;;;;;5.23;4.33;;;;;;;19.93;53.93;99219.34;5133240;27;42957;-76
2023/07/09 04:04:42;;;;;;;5.60;3.93;;;;;;;19.97;54.25;99215.38;5133118;27;41316;-77
2023/07/09 04:07:10;;;;;;;4.60;4.10;;;;;;;20.02;54.44;99223.00;5116080;27;40112;-77
2023/07/09 04:09:39;;;;;;;4.20;3.80;;;;;;;19.94;54.17;99198.69;5115852;27;40916;-77
2023/07/09 04:12:08;;;;;;;4.90;4.37;;;;;;;20.09;54.34;99218.72;5116159;27;42397;-77
2023/07/09 04:14:36;;;;;;;4.67;3.83;;;;;;;20.13;53.96;99220.13;5115892;27;41665;-77
2023/07/09 04:17:04;;;;;;;4.60;4.20;;;;;;;20.21;54.11;99217.53;5133605;27;41025;-77
2023/07/09 04:19:32;;;;;;;4.37;3.97;;;;;;;20.03;53.89;99184.34;5151712;27;41747;-76
2023/07/09 04:21:59;;;;;;;4.70;4.20;;;;;;;20.36;54.16;99226.84;5116332;27;43158;-77
2023/07/09 04:24:28;;;;;;;5.47;4.30;;;;;;;20.48;53.69;99223.97;5133010;27;41256;-77
2023/07/09 04:26:58;;;;;;;5.40;4.60;;;;;;;20.56;54.01;99224.06;5151755;27;41200;-76
2023/07/09 04:29:25;;;;;;;5.67;4.40;;;;;;;20.65;53.93;99236.59;5133250;27;41972;-76
2023/07/09 04:31:53;;;;;;;4.27;3.83;;;;;;;20.73;53.98;99234.03;5132854;27;42483;-77
2023/07/09 04:34:20;;;;;;;6.43;4.60;;;;;;;20.79;53.94;99228.88;5151587;27;42129;-77
2023/07/09 04:36:48;;;;;;;4.77;4.27;;;;;;;20.86;54.11;99233.66;5115688;27;40947;-77
2023/07/09 04:39:16;;;;;;;5.27;3.80;;;;;;;20.90;53.86;99235.03;5132913;27;40785;-77
2023/07/09 04:41:44;;;;;;;5.57;4.13;;;;;;;20.96;53.73;99234.44;5134353;27;43505;-77
2023/07/09 04:44:13;;;;;;;5.07;4.53;;;;;;;20.95;54.04;99228.19;5136492;27;41425;-78
2023/07/09 04:46:41;;;;;;;6.47;4.50;;;;;;;21.08;54.46;99239.44;5136334;27;40931;-77
2023/07/09 04:49:10;;;;;;;5.80;4.50;;;;;;;21.13;54.46;99231.75;5154997;27;42177;-77
2023/07/09 04:51:38;;;;;;;5.73;4.67;;;;;;;21.15;54.94;99229.75;5118879;27;43035;-76
2023/07/09 04:54:06;;;;;;;6.70;5.07;;;;;;;21.23;54.86;99231.72;5155041;27;42475;-77
2023/07/09 04:56:33;;;;;;;5.10;4.40;;;;;;;21.30;54.67;99231.94;5136524;27;41279;-77
2023/07/09 04:59:01;;;;;;;5.20;4.70;;;;;;;21.38;55.01;99240.09;5119051;27;41772;-77
2023/07/09 05:01:30;;;;;;;8.53;5.70;;;;;;;21.46;54.92;99248.25;5118639;27;42027;-76
2023/07/09 05:03:58;;;;;;;5.00;4.40;;;;;;;21.54;54.17;99236.69;5118718;27;41130;-77
2023/07/09 05:06:25;;;;;;;5.30;4.80;;;;;;;21.64;54.58;99246.34;5154784;27;41880;-77
2023/07/09 05:08:53;;;;;;;7.80;5.30;;;;;;;21.72;54.70;99248.28;5119046;27;40577;-77
2023/07/09 05:11:20;;;;;;;5.33;4.83;;;;;;;21.70;54.42;99232.28;5136119;27;43278;-77
2023/07/09 05:13:48;;;;;;;4.90;4.33;;;;;;;21.91;54.45;99252.63;5154592;27;42536;-77
2023/07/09 05:16:16;;;;;;;5.57;4.43;;;;;;;22.00;54.07;99251.72;5136058;27;41901;-78
2023/07/09 05:18:46;;;;;;;5.33;4.77;;;;;;;22.11;54.04;99255.00;5135743;27;40682;-77
2023/07/09 05:21:14;;;;;;;5.40;4.90;;;;;;;22.22;54.08;99256.59;5135793;27;42158;-77
2023/07/09 05:23:41;;;;;;;5.77;4.50;;;;;;;22.34;53.82;99255.28;5118677;27;42267;-77
2023/07/09 05:26:10;;;;;;;6.20;5.20;;;;;;;22.44;53.56;99255.16;5135534;27;41760;-77
2023/07/09 05:28:38;;;;;;;7.27;4.83;;;;;;;22.60;53.45;99259.81;5135877;27;42791;-77
2023/07/09 05:31:06;;;;;;;6.87;5.23;;;;;;;22.71;53.52;99257.66;5135476;27;41490;-77
2023/07/09 05:33:34;;;;;;;5.77;4.80;;;;;;;22.82;52.77;99256.53;5154219;27;42227;-77
2023/07/09 05:36:03;;;;;;;5.47;4.97;;;;;;;22.93;52.95;99253.53;5135354;27;40727;-77
2023/07/09 05:38:31;;;;;;;6.03;5.13;;;;;;;23.04;52.89;99258.63;5118509;27;40779;-77
2023/07/09 05:41:03;;;;;;;6.23;5.07;;;;;;;23.18;52.75;99249.88;5118173;27;42097;-77
2023/07/09 05:43:31;;;;;;;6.07;4.80;;;;;;;23.31;52.37;99249.38;5118373;27;40964;-76
2023/07/09 05:45:59;;;;;;;6.60;5.50;;;;;;;23.43;52.35;99252.59;5117885;27;41374;-77
2023/07/09 05:48:27;;;;;;;6.27;5.13;;;;;;;23.56;51.82;99256.53;5154134;27;42488;-77
2023/07/09 05:50:55;;;;;;;6.20;5.30;;;;;;;23.60;51.36;99243.53;5117924;27;42910;-77
2023/07/09 05:53:25;;;;;;;7.80;5.17;;;;;;;23.85;51.61;99280.38;5152862;27;43332;-77
2023/07/09 05:55:54;;;;;;;6.57;5.07;;;;;;;23.99;50.88;99271.53;5134941;27;40981;-77
2023/07/09 05:58:22;;;;;;;6.70;5.53;;;;;;;23.91;50.42;99236.38;5153870;27;41519;-77
2023/07/09 06:00:53;;;;;;;7.40;5.60;;;;;;;24.30;50.15;99274.41;5134838;27;42895;-77
2023/07/09 06:03:22;;;;;;;6.57;5.50;;;;;;;24.44;50.23;99289.09;5135570;27;41663;-78
2023/07/09 06:05:50;;;;;;;7.97;5.40;;;;;;;24.47;49.52;99263.53;5118066;27;40188;-77
2023/07/09 06:08:18;;;;;;;7.70;5.57;;;;;;;24.72;49.20;99283.25;5118051;27;41016;-78
2023/07/09 06:10:55;;;;;;;6.73;5.63;;;;;;;24.86;48.88;99291.44;5135204;27;43844;-77
2023/07/09 06:13:23;;;;;;;7.40;5.67;;;;;;;24.92;49.10;99287.19;5135330;27;41652;-77
2023/07/09 06:15:52;;;;;;;6.27;5.43;;;;;;;25.05;48.85;99282.09;5135090;27;41850;-78
2023/07/09 06:18:20;;;;;;;5.90;5.33;;;;;;;25.29;48.19;99298.19;5117786;27;40954;-78
2023/07/09 06:20:49;;;;;;;7.17;5.37;;;;;;;25.42;47.99;99297.63;5134742;27;42728;-77
2023/07/09 06:23:17;;;;;;;6.83;5.93;;;;;;;25.49;47.80;99292.28;5153436;27;43275;-78
2023/07/09 06:25:47;;;;;;;5.90;5.30;;;;;;;25.71;47.37;99303.22;5117444;27;40978;-78
2023/07/09 06:28:17;;;;;;;9.27;6.30;;;;;;;25.90;47.07;99301.84;5153494;27;41845;-77
2023/07/09 06:30:45;;;;;;;6.67;5.87;;;;;;;26.03;46.03;99298.50;5134394;27;42316;-77
2023/07/09 06:33:15;;;;;;;6.50;5.73;;;;;;;26.24;45.73;99311.38;5134829;27;42183;-78
2023/07/09 06:35:48;;;;;;;7.00;6.13;;;;;;;26.46;45.08;99313.19;5134464;27;41096;-78
2023/07/09 06:38:15;;;;;;;6.40;5.60;;;;;;;26.64;44.71;99316.41;5131909;27;41609;-77
2023/07/09 06:40:43;;;;;;;7.50;5.87;;;;;;;26.80;44.01;99324.38;5134581;27;42726;-78
2023/07/09 06:43:12;;;;;;;6.27;5.50;;;;;;;27.04;43.93;99330.56;5117502;27;41859;-77
2023/07/09 06:45:51;;;;;;;6.77;5.33;;;;;;;27.29;42.98;99329.22;5134640;27;41729;-77
2023/07/09 06:48:19;;;;;;;7.40;5.43;;;;;;;27.71;42.69;99333.03;5134484;27;40614;-77
2023/07/09 06:50:47;;;;;;;6.80;5.50;;;;;;;27.96;42.23;99334.31;5117087;27;41721;-77
2023/07/09 06:53:15;;;;;;;6.80;6.10;;;;;;;28.07;41.90;99331.06;5134722;27;43211;-77
2023/07/09 06:55:43;;;;;;;6.60;5.83;;;;;;;28.12;42.00;99325.88;5134185;27;39909;-78
2023/07/09 06:58:11;;;;;;;7.13;6.30;;;;;;;28.26;42.20;99329.59;5117498;27;41979;-78
2023/07/09 07:00:39;;;;;;;7.37;6.20;;;;;;;28.37;41.52;99331.75;5134206;27;42696;-79
2023/07/09 07:03:08;;;;;;;6.13;5.53;;;;;;;28.50;41.73;99328.28;5152741;27;43132;-78
2023/07/09 07:05:36;;;;;;;8.83;6.50;;;;;;;28.53;40.81;99325.16;5133919;27;41146;-78
2023/07/09 07:08:06;;;;;;;7.53;5.77;;;;;;;28.69;40.63;99345.78;5117232;27;42055;-78
2023/07/09 07:10:33;;;;;;;6.17;5.57;;;;;;;28.83;40.68;99334.81;5116833;27;41879;-78
2023/07/09 07:13:01;;;;;;;6.17;5.60;;;;;;;28.98;40.33;99339.28;5134240;27;41114;-78
2023/07/09 07:15:29;;;;;;;6.10;5.47;;;;;;;29.25;39.60;99352.84;5134023;27;39598;-78
2023/07/09 07:17:57;;;;;;;6.20;5.60;;;;;;;29.60;38.94;99355.50;5116976;27;40654;-78
2023/07/09 07:20:26;;;;;;;6.80;6.10;;;;;;;29.72;38.26;99351.13;5134107;27;43718;-78
2023/07/09 07:22:54;;;;;;;6.13;5.53;;;;;;;29.81;37.79;99357.22;5152777;27;43221;-77
2023/07/09 07:25:21;;;;;;;6.60;5.90;;;;;;;29.96;37.47;99357.91;5134069;27;41264;-78
2023/07/09 07:27:49;;;;;;;6.47;5.87;;;;;;;30.10;37.36;99345.13;5134216;27;41728;-77
2023/07/09 07:30:17;;;;;;;6.53;5.90;;;;;;;30.25;37.19;99348.50;5152167;27;42489;-77
2023/07/09 07:32:47;;;;;;;6.73;6.10;;;;;;;30.46;35.76;99366.56;5116315;27;42510;-78
2023/07/09 07:35:15;;;;;;;5.90;5.10;;;;;;;30.63;35.93;99356.91;5132958;27;41243;-77
2023/07/09 07:37:45;;;;;;;7.60;5.70;;;;;;;31.02;34.81;99369.66;5116761;27;40656;-77
2023/07/09 07:40:13;;;;;;;6.57;5.93;;;;;;;31.39;34.60;99368.06;5133619;27;42925;-77
2023/07/09 07:42:40;;;;;;;6.33;5.60;;;;;;;31.56;34.15;99369.22;5116566;27;41148;-78
2023/07/09 07:45:09;;;;;;;6.87;6.17;;;;;;;31.80;34.46;99366.81;5133688;27;39832;-77
2023/07/09 07:47:37;;;;;;;7.17;5.73;;;;;;;32.06;34.11;99369.38;5116648;27;40337;-78
2023/07/09 07:50:05;;;;;;;7.37;6.33;;;;;;;32.65;33.22;99368.88;5152321;27;43574;-78
2023/07/09 07:52:37;;;;;;;7.63;6.17;;;;;;;33.72;31.78;99359.22;5152339;27;43311;-78
2023/07/09 07:55:07;;;;;;;7.63;6.73;;;;;;;35.28;29.53;99386.22;5116199;27;40739;-78
2023/07/09 07:57:35;;;;;;;6.87;5.77;;;;;;;36.52;28.20;99399.34;5133469;27;40634;-78
2023/07/09 08:00:04;;;;;;;7.28;6.07;;;;;;;37.80;27.03;99397.31;5133242;27;42910;-78
2023/07/09 08:02:39;;;;;;;6.57;5.90;;;;;;;38.62;25.48;99386.78;5148789;27;42444;-78
2023/07/09 08:05:08;;;;;;;6.40;5.80;;;;;;;39.02;25.55;99402.88;5133614;27;41994;-78
2023/07/09 08:07:35;;;;;;;6.15;5.65;;;;;;;39.36;25.07;99386.69;5116360;27;41820;-80
2023/07/09 08:10:03;;;;;;;7.00;6.30;;;;;;;39.88;23.88;99402.44;5133001;27;41865;-79
2023/07/09 08:12:32;;;;;;;6.63;5.40;;;;;;;40.68;22.80;99409.19;5152013;27;43322;-79
2023/07/09 08:15:00;;;;;;;5.80;5.30;;;;;;;41.70;22.07;99400.59;5151737;27;41957;-77
2023/07/09 08:17:27;;;;;;;7.40;5.50;;;;;;;42.66;21.28;99408.31;5136127;27;40838;-77
2023/07/09 08:19:55;;;;;;;6.35;5.75;;;;;;;43.51;20.48;99402.13;5136693;27;41481;-78
2023/07/09 08:22:23;;;;;;;6.40;5.80;;;;;;;44.11;19.64;99417.25;5155410;27;43187;-78
2023/07/09 08:24:51;;;;;;;5.63;4.85;;;;;;;44.13;20.05;99408.56;5155453;27;41105;-77
2023/07/09 08:27:19;;;;;;;5.28;4.72;;;;;;;44.11;19.78;99410.84;5136963;27;40869;-78
2023/07/09 08:29:48;;;;;;;6.07;5.47;;;;;;;44.08;20.21;99411.44;5155058;27;42904;-78
2023/07/09 08:32:15;;;;;;;5.55;5.05;;;;;;;44.04;20.10;99400.84;5136591;27;42903;-78
2023/07/09 08:34:43;;;;;;;5.05;4.60;;;;;;;43.93;20.27;99382.56;5118537;27;40694;-78
2023/07/09 08:37:11;;;;;;;5.78;5.03;;;;;;;43.98;20.13;99395.66;5136851;27;40803;-77
2023/07/09 08:39:39;;;;;;;6.15;5.55;;;;;;;43.90;20.18;99383.16;5118637;27;41795;-78
2023/07/09 08:42:13;;;;;;;5.07;4.68;;;;;;;43.94;19.89;99400.16;5119218;27;42400;-79
2023/07/09 08:45:02;;;;;;;7.07;4.82;;;;;;;43.62;20.54;99387.78;5136297;27;41193;-80
2023/07/09 08:47:38;;;;;;;5.68;5.10;;;;;;;43.17;20.63;99391.06;5133360;27;41925;-79
2023/07/09 08:50:11;;;;;;;6.13;4.90;;;;;;;42.64;21.19;99393.84;5118438;27;43264;-78
2023/07/09 08:52:43;;;;;;;4.80;4.40;;;;;;;42.18;21.56;99385.84;5151543;27;43097;-78
2023/07/09 08:55:15;;;;;;;6.43;5.43;;;;;;;41.89;21.58;99377.41;5136266;27;40163;-79
2023/07/09 08:57:47;;;;;;;7.20;5.90;;;;;;;41.62;21.51;99365.06;5133263;27;42467;-78
2023/07/09 09:00:23;;;;;;;5.28;4.88;;;;;;;41.43;21.88;99371.22;5133996;27;42753;-79
2023/07/09 09:02:56;;;;;;;5.38;4.93;;;;;;;41.23;21.90;99374.94;5119137;27;42252;-79
2023/07/09 09:05:25;;;;;;;5.40;4.82;;;;;;;41.09;21.96;99375.78;5152626;27;41852;-78
2023/07/09 09:07:56;;;;;;;4.55;4.15;;;;;;;40.99;20.71;99379.44;5118935;27;42183;-78
2023/07/09 09:10:33;;;;;;;4.40;4.00;;;;;;;41.11;20.99;99381.91;5152433;27;43728;-78
2023/07/09 09:13:09;;;;;;;4.90;4.40;;;;;;;41.09;20.81;99379.41;5132935;27;42351;-79
2023/07/09 09:15:41;;;;;;;4.72;4.30;;;;;;;40.99;21.45;99384.16;5136122;27;40003;-78
2023/07/09 09:18:23;;;;;;;5.40;3.80;;;;;;;41.01;20.87;99393.06;5135729;27;41982;-78
2023/07/09 09:20:58;;;;;;;6.10;4.38;;;;;;;41.13;20.72;99385.25;5134536;27;43574;-78
2023/07/09 09:23:36;;;;;;;4.35;3.55;;;;;;;41.09;20.40;99384.13;5135512;27;43031;-79
2023/07/09 09:26:15;;;;;;;3.80;3.40;;;;;;;41.05;20.77;99377.50;5135565;27;40987;-78
2023/07/09 09:28:42;;;;;;;5.47;3.80;;;;;;;41.11;20.72;99387.47;5132539;27;41852;-79
2023/07/09 09:31:13;;;;;;;4.03;3.72;;;;;;;41.21;20.55;99379.94;5154124;27;43698;-77
2023/07/09 09:33:43;;;;;;;4.38;3.97;;;;;;;42.06;19.92;99388.16;5154497;27;42176;-79
2023/07/09 09:36:17;;;;;;;4.35;3.92;;;;;;;43.08;18.84;99390.91;5135402;27;41938;-78
2023/07/09 09:38:45;;;;;;;3.47;3.17;;;;;;;43.50;18.55;99383.75;5132514;27;41715;-79
2023/07/09 09:41:18;;;;;;;4.00;3.35;;;;;;;43.74;18.90;99386.50;5118348;27;41852;-79
2023/07/09 09:43:47;;;;;;;6.07;3.72;;;;;;;43.84;18.94;99389.16;5135329;27;42821;-79
2023/07/09 09:46:22;;;;;;;4.78;4.03;;;;;;;44.13;17.89;99401.03;5153920;27;41027;-79
2023/07/09 09:48:52;;;;;;;3.80;3.50;;;;;;;44.49;17.30;99400.47;5132152;27;41989;-79
2023/07/09 09:51:20;;;;;;;4.22;3.83;;;;;;;44.70;17.87;99404.56;5135048;27;42960;-78
2023/07/09 09:53:51;;;;;;;4.13;3.72;;;;;;;44.92;17.44;99398.28;5135199;27;42498;-79
2023/07/09 09:56:21;;;;;;;3.80;3.50;;;;;;;45.52;16.68;99385.09;5134911;27;41270;-80
2023/07/09 09:58:54;;;;;;;5.28;3.85;;;;;;;46.89;16.78;99390.19;5135172;27;40519;-79
2023/07/09 10:01:29;;;;;;;5.28;3.83;;;;;;;47.65;15.74;99395.59;5118000;27;42033;-78
2023/07/09 10:03:58;;;;;;;5.65;3.80;;;;;;;47.36;16.09;99388.56;5131755;27;42296;-78
2023/07/09 10:06:36;;;;;;;4.25;3.85;;;;;;;46.84;16.71;99385.56;5134636;27;42623;-79
2023/07/09 10:09:12;;;;;;;3.53;3.17;;;;;;;46.35;16.78;99380.94;5131904;27;41925;-79
2023/07/09 10:11:46;;;;;;;4.60;3.35;;;;;;;45.76;17.43;99368.84;5135086;27;41941;-79
2023/07/09 10:14:27;;;;;;;4.03;3.28;;;;;;;45.33;18.29;99375.97;5117828;27;41190;-79
2023/07/09 10:17:02;;;;;;;4.25;3.85;;;;;;;44.96;17.42;99372.22;5117391;27;41300;-79
2023/07/09 10:19:39;;;;;;;4.05;3.75;;;;;;;44.72;17.29;99374.34;5150078;27;41785;-80
2023/07/09 10:22:11;;;;;;;5.80;3.90;;;;;;;44.53;17.64;99356.78;5134476;27;43010;-80
2023/07/09 10:24:55;;;;;;;3.83;3.35;;;;;;;44.66;17.99;99355.97;5134707;27;41652;-80
2023/07/09 10:27:30;;;;;;;3.70;3.30;;;;;;;44.76;18.15;99355.81;5131921;27;41925;-79
2023/07/09 10:30:20;;;;;;;4.28;3.88;;;;;;;44.51;17.46;99359.91;5117402;27;40817;-79
2023/07/09 10:33:06;;;;;;;4.25;3.50;;;;;;;44.22;18.09;99351.72;5149898;27;42679;-79
2023/07/09 10:35:39;;;;;;;3.90;3.40;;;;;;;44.06;17.89;99347.50;5150787;27;43477;-80
2023/07/09 10:38:28;;;;;;;4.57;3.33;;;;;;;44.12;18.13;99351.06;5131487;27;40875;-80
2023/07/09 10:40:59;;;;;;;5.13;3.80;;;;;;;44.12;17.68;99356.66;5134452;27;42078;-80
2023/07/09 10:43:36;;;;;;;5.80;3.90;;;;;;;44.01;19.28;99340.06;5150158;27;44158;-80
2023/07/09 10:46:12;;;;;;;4.13;3.55;;;;;;;44.15;18.51;99347.63;5134057;27;43504;-80
2023/07/09 10:48:45;;;;;;;4.85;3.60;;;;;;;43.93;19.15;99310.00;5150108;27;40894;-81
2023/07/09 10:51:20;;;;;;;3.88;3.47;;;;;;;43.96;18.74;99348.47;5134560;27;42140;-80
2023/07/09 10:53:51;;;;;;;5.35;4.07;;;;;;;43.81;19.42;99339.50;5131683;27;42921;-79
2023/07/09 10:56:23;;;;;;;4.72;3.85;;;;;;;43.73;19.15;99331.81;5133728;27;42127;-80
2023/07/09 10:58:58;;;;;;;3.85;3.20;;;;;;;43.68;19.55;99324.34;5149948;27;41040;-80
2023/07/09 11:01:32;;;;;;;4.53;3.58;;;;;;;43.62;19.38;99320.00;5117048;27;42000;-80
2023/07/09 11:04:06;;;;;;;4.25;3.85;;;;;;;43.64;19.77;99324.16;5131472;27;43813;-79
2023/07/09 11:06:38;;;;;;;4.05;3.60;;;;;;;43.40;19.33;99284.25;5133978;27;42279;-81
2023/07/09 11:09:12;;;;;;;5.75;3.95;;;;;;;43.31;19.50;99280.50;5134559;27;39932;-81
2023/07/09 11:11:45;;;;;;;5.65;3.80;;;;;;;43.52;19.62;99309.78;5134216;27;41772;-81
2023/07/09 11:14:29;;;;;;;4.32;3.90;;;;;;;43.58;19.50;99314.16;5117492;27;42307;-81
2023/07/09 11:17:00;;;;;;;6.03;3.58;;;;;;;43.50;19.45;99312.03;5131284;27;42396;-80
2023/07/09 11:19:30;;;;;;;4.13;3.65;;;;;;;43.51;18.68;99318.44;5134134;27;39859;-79
2023/07/09 11:22:05;;;;;;;4.63;3.30;;;;;;;43.48;18.86;99305.09;5152269;27;41784;-79
2023/07/09 11:24:36;;;;;;;4.65;4.15;;;;;;;43.50;18.54;99306.47;5149188;27;42731;-80
2023/07/09 11:27:19;;;;;;;5.30;3.58;;;;;;;43.55;18.63;99309.16;5134240;27;42268;-80
2023/07/09 11:29:48;;;;;;;4.53;3.70;;;;;;;43.63;19.59;99300.16;5133950;27;41772;-79
2023/07/09 11:32:22;;;;;;;5.32;4.20;;;;;;;43.66;18.55;99305.09;5116891;27;40703;-79
2023/07/09 11:34:51;;;;;;;4.05;3.63;;;;;;;43.53;18.44;99305.84;5133726;27;41597;-80
2023/07/09 11:37:19;;;;;;;4.75;3.50;;;;;;;43.47;18.83;99298.69;5131893;27;43011;-80
2023/07/09 11:39:49;;;;;;;3.72;3.40;;;;;;;43.50;18.30;99295.31;5152316;27;40895;-82
2023/07/09 11:42:28;;;;;;;4.25;3.85;;;;;;;43.54;18.32;99289.94;5133488;27;41000;-82
2023/07/09 11:45:02;;;;;;;5.63;3.90;;;;;;;43.55;18.20;99292.41;5116684;27;42956;-80
2023/07/09 11:47:35;;;;;;;4.13;3.33;;;;;;;43.81;18.63;99280.91;5133703;27;41799;-80